sensor_id;sensor_type;location;lat;lon;timestamp;pressure;altitude;pressure_sealevel;temperature;humidity
51452;BME280;37521;52.020;-1.740;2022-08-23T00:02:15;99528.06;;;14.93;100.00
51452;BME280;37521;52.020;-1.740;2022-08-23T00:04:50;99524.34;;;14.95;100.00
51452;BME280;37521;52.020;-1.740;2022-08-23T00:07:35;99524.22;;;14.97;100.00
51452;BME280;37521;52.020;-1.740;2022-08-23T00:10:06;99529.34;;;15.00;100.00
51452;BME280;37521;52.020;-1.740;2022-08-23T00:12:35;99526.09;;;15.08;100.00
51452;BME280;37521;52.020;-1.740;2022-08-23T00:15:06;99530.75;;;15.17;100.00
51452;BME280;37521;52.020;-1.740;2022-08-23T00:17:37;99530.19;;;15.24;100.00
51452;BME280;37521;52.020;-1.740;2022-08-23T00:20:06;99531.66;;;15.29;100.00
51452;BME280;37521;52.020;-1.740;2022-08-23T00:22:36;99528.88;;;15.30;100.00
51452;BME280;37521;52.020;-1.740;2022-08-23T00:25:08;99518.16;;;15.32;100.00
51452;BME280;37521;52.020;-1.740;2022-08-23T00:27:38;99521.75;;;15.31;100.00
51452;BME280;37521;52.020;-1.740;2022-08-23T00:30:08;99522.84;;;15.28;100.00
51452;BME280;37521;52.020;-1.740;2022-08-23T00:32:39;99516.69;;;15.27;100.00
51452;BME280;37521;52.020;-1.740;2022-08-23T00:35:10;99517.66;;;15.26;100.00
51452;BME280;37521;52.020;-1.740;2022-08-23T00:37:52;99522.00;;;15.27;100.00
51452;BME280;37521;52.020;-1.740;2022-08-23T00:40:42;99517.53;;;15.28;100.00
51452;BME280;37521;52.020;-1.740;2022-08-23T00:43:13;99520.31;;;15.26;100.00
51452;BME280;37521;52.020;-1.740;2022-08-23T00:46:07;99525.38;;;15.30;100.00
51452;BME280;37521;52.020;-1.740;2022-08-23T00:49:00;99524.41;;;15.31;100.00
51452;BME280;37521;52.020;-1.740;2022-08-23T00:51:33;99526.16;;;15.32;100.00
51452;BME280;37521;52.020;-1.740;2022-08-23T00:54:20;99521.31;;;15.37;100.00
51452;BME280;37521;52.020;-1.740;2022-08-23T00:56:49;99519.50;;;15.37;100.00
51452;BME280;37521;52.020;-1.740;2022-08-23T00:59:18;99519.41;;;15.39;100.00
51452;BME280;37521;52.020;-1.740;2022-08-23T01:01:46;99526.41;;;15.40;100.00
51452;BME280;37521;52.020;-1.740;2022-08-23T01:04:17;99527.25;;;15.40;100.00
51452;BME280;37521;52.020;-1.740;2022-08-23T01:06:49;99518.31;;;15.41;100.00
51452;BME280;37521;52.020;-1.740;2022-08-23T01:09:21;99527.16;;;15.42;100.00
51452;BME280;37521;52.020;-1.740;2022-08-23T01:11:53;99531.38;;;15.44;100.00
51452;BME280;37521;52.020;-1.740;2022-08-23T01:14:27;99530.44;;;15.45;100.00
51452;BME280;37521;52.020;-1.740;2022-08-23T01:17:01;99532.88;;;15.48;100.00
51452;BME280;37521;52.020;-1.740;2022-08-23T01:19:36;99543.50;;;15.48;100.00
51452;BME280;37521;52.020;-1.740;2022-08-23T01:22:10;99537.34;;;15.48;100.00
51452;BME280;37521;52.020;-1.740;2022-08-23T01:24:42;99533.59;;;15.50;100.00
51452;BME280;37521;52.020;-1.740;2022-08-23T01:27:35;99535.41;;;15.50;100.00
51452;BME280;37521;52.020;-1.740;2022-08-23T01:30:07;99532.13;;;15.46;100.00
51452;BME280;37521;52.020;-1.740;2022-08-23T01:32:38;99535.97;;;15.42;100.00
51452;BME280;37521;52.020;-1.740;2022-08-23T01:35:09;99537.19;;;15.38;100.00
51452;BME280;37521;52.020;-1.740;2022-08-23T01:37:37;99527.94;;;15.31;100.00
51452;BME280;37521;52.020;-1.740;2022-08-23T01:40:08;99533.81;;;15.23;100.00
51452;BME280;37521;52.020;-1.740;2022-08-23T01:42:37;99531.59;;;15.17;100.00
51452;BME280;37521;52.020;-1.740;2022-08-23T01:45:10;99538.84;;;15.15;100.00
51452;BME280;37521;52.020;-1.740;2022-08-23T01:47:40;99536.81;;;15.19;100.00
51452;BME280;37521;52.020;-1.740;2022-08-23T01:50:10;99539.50;;;15.19;100.00
51452;BME280;37521;52.020;-1.740;2022-08-23T01:52:40;99537.69;;;15.19;100.00
51452;BME280;37521;52.020;-1.740;2022-08-23T01:55:17;99539.25;;;15.22;100.00
51452;BME280;37521;52.020;-1.740;2022-08-23T01:57:54;99540.09;;;15.22;100.00
51452;BME280;37521;52.020;-1.740;2022-08-23T02:00:27;99539.03;;;15.25;100.00
51452;BME280;37521;52.020;-1.740;2022-08-23T02:02:56;99536.25;;;15.26;100.00
51452;BME280;37521;52.020;-1.740;2022-08-23T02:05:26;99549.44;;;15.28;100.00
51452;BME280;37521;52.020;-1.740;2022-08-23T02:07:54;99538.69;;;15.30;100.00
51452;BME280;37521;52.020;-1.740;2022-08-23T02:10:24;99531.47;;;15.32;100.00
51452;BME280;37521;52.020;-1.740;2022-08-23T02:12:53;99529.66;;;15.32;100.00
51452;BME280;37521;52.020;-1.740;2022-08-23T02:15:22;99530.50;;;15.33;100.00
51452;BME280;37521;52.020;-1.740;2022-08-23T02:17:50;99532.19;;;15.34;100.00
51452;BME280;37521;52.020;-1.740;2022-08-23T02:20:21;99532.19;;;15.34;100.00
51452;BME280;37521;52.020;-1.740;2022-08-23T02:22:50;99529.53;;;15.34;100.00
51452;BME280;37521;52.020;-1.740;2022-08-23T02:25:18;99536.41;;;15.36;100.00
51452;BME280;37521;52.020;-1.740;2022-08-23T02:27:48;99531.09;;;15.36;100.00
51452;BME280;37521;52.020;-1.740;2022-08-23T02:30:16;99524.94;;;15.36;100.00
51452;BME280;37521;52.020;-1.740;2022-08-23T02:32:45;99525.66;;;15.38;100.00
51452;BME280;37521;52.020;-1.740;2022-08-23T02:35:14;99531.94;;;15.37;100.00
51452;BME280;37521;52.020;-1.740;2022-08-23T02:37:42;99531.88;;;15.38;100.00
51452;BME280;37521;52.020;-1.740;2022-08-23T02:40:11;99526.63;;;15.37;100.00
51452;BME280;37521;52.020;-1.740;2022-08-23T02:42:39;99529.19;;;15.38;100.00
51452;BME280;37521;52.020;-1.740;2022-08-23T02:45:09;99530.03;;;15.39;100.00
51452;BME280;37521;52.020;-1.740;2022-08-23T02:47:44;99530.03;;;15.39;100.00
51452;BME280;37521;52.020;-1.740;2022-08-23T02:50:18;99535.38;;;15.39;100.00
51452;BME280;37521;52.020;-1.740;2022-08-23T02:52:47;99542.38;;;15.40;100.00
51452;BME280;37521;52.020;-1.740;2022-08-23T02:55:15;99538.88;;;15.39;100.00
51452;BME280;37521;52.020;-1.740;2022-08-23T02:57:44;99538.97;;;15.38;100.00
51452;BME280;37521;52.020;-1.740;2022-08-23T03:00:16;99543.34;;;15.39;100.00
51452;BME280;37521;52.020;-1.740;2022-08-23T03:02:45;99539.94;;;15.37;100.00
51452;BME280;37521;52.020;-1.740;2022-08-23T03:05:14;99542.59;;;15.37;100.00
51452;BME280;37521;52.020;-1.740;2022-08-23T03:07:42;99534.72;;;15.35;100.00
51452;BME280;37521;52.020;-1.740;2022-08-23T03:10:11;99537.50;;;15.34;100.00
51452;BME280;37521;52.020;-1.740;2022-08-23T03:12:45;99541.22;;;15.31;100.00
51452;BME280;37521;52.020;-1.740;2022-08-23T03:15:15;99547.50;;;15.30;100.00
51452;BME280;37521;52.020;-1.740;2022-08-23T03:17:43;99550.28;;;15.29;100.00
51452;BME280;37521;52.020;-1.740;2022-08-23T03:20:12;99554.75;;;15.28;100.00
51452;BME280;37521;52.020;-1.740;2022-08-23T03:22:40;99552.22;;;15.26;100.00
51452;BME280;37521;52.020;-1.740;2022-08-23T03:25:21;99550.53;;;15.25;100.00
51452;BME280;37521;52.020;-1.740;2022-08-23T03:28:02;99542.63;;;15.24;100.00
51452;BME280;37521;52.020;-1.740;2022-08-23T03:30:35;99538.16;;;15.24;100.00
51452;BME280;37521;52.020;-1.740;2022-08-23T03:33:05;99527.66;;;15.23;100.00
51452;BME280;37521;52.020;-1.740;2022-08-23T03:35:33;99526.06;;;15.20;100.00
51452;BME280;37521;52.020;-1.740;2022-08-23T03:38:03;99523.63;;;15.17;100.00
51452;BME280;37521;52.020;-1.740;2022-08-23T03:40:31;99524.19;;;15.10;100.00
51452;BME280;37521;52.020;-1.740;2022-08-23T03:43:00;99533.81;;;14.99;100.00
51452;BME280;37521;52.020;-1.740;2022-08-23T03:45:30;99538.06;;;14.89;100.00
51452;BME280;37521;52.020;-1.740;2022-08-23T03:47:59;99550.94;;;14.83;100.00
51452;BME280;37521;52.020;-1.740;2022-08-23T03:50:31;99557.53;;;14.77;100.00
51452;BME280;37521;52.020;-1.740;2022-08-23T03:52:59;99551.59;;;14.74;100.00
51452;BME280;37521;52.020;-1.740;2022-08-23T03:55:28;99556.38;;;14.68;100.00
51452;BME280;37521;52.020;-1.740;2022-08-23T03:57:59;99559.28;;;14.65;100.00
51452;BME280;37521;52.020;-1.740;2022-08-23T04:00:28;99562.13;;;14.62;100.00
51452;BME280;37521;52.020;-1.740;2022-08-23T04:02:56;99568.53;;;14.60;100.00
51452;BME280;37521;52.020;-1.740;2022-08-23T04:05:27;99560.88;;;14.55;100.00
51452;BME280;37521;52.020;-1.740;2022-08-23T04:08:06;99568.94;;;14.54;100.00
51452;BME280;37521;52.020;-1.740;2022-08-23T04:10:35;99566.81;;;14.46;100.00
51452;BME280;37521;52.020;-1.740;2022-08-23T04:13:05;99560.94;;;14.41;100.00
51452;BME280;37521;52.020;-1.740;2022-08-23T04:15:35;99566.47;;;14.38;100.00
51452;BME280;37521;52.020;-1.740;2022-08-23T04:18:05;99574.44;;;14.38;100.00
51452;BME280;37521;52.020;-1.740;2022-08-23T04:20:36;99581.97;;;14.44;100.00
51452;BME280;37521;52.020;-1.740;2022-08-23T04:23:05;99581.50;;;14.52;100.00
51452;BME280;37521;52.020;-1.740;2022-08-23T04:25:45;99581.25;;;14.55;100.00
51452;BME280;37521;52.020;-1.740;2022-08-23T04:28:16;99574.56;;;14.62;100.00
51452;BME280;37521;52.020;-1.740;2022-08-23T04:30:44;99561.94;;;14.65;100.00
51452;BME280;37521;52.020;-1.740;2022-08-23T04:33:14;99573.28;;;14.67;100.00
51452;BME280;37521;52.020;-1.740;2022-08-23T04:35:46;99567.97;;;14.67;100.00
51452;BME280;37521;52.020;-1.740;2022-08-23T04:38:15;99575.00;;;14.68;100.00
51452;BME280;37521;52.020;-1.740;2022-08-23T04:40:55;99565.31;;;14.67;100.00
51452;BME280;37521;52.020;-1.740;2022-08-23T04:43:43;99572.22;;;14.70;100.00
51452;BME280;37521;52.020;-1.740;2022-08-23T04:46:14;99567.00;;;14.68;100.00
51452;BME280;37521;52.020;-1.740;2022-08-23T04:48:45;99586.56;;;14.67;100.00
51452;BME280;37521;52.020;-1.740;2022-08-23T04:51:16;99580.41;;;14.67;100.00
51452;BME280;37521;52.020;-1.740;2022-08-23T04:53:45;99583.91;;;14.67;100.00
51452;BME280;37521;52.020;-1.740;2022-08-23T04:56:32;99584.03;;;14.66;100.00
51452;BME280;37521;52.020;-1.740;2022-08-23T04:59:01;99585.06;;;14.63;100.00
51452;BME280;37521;52.020;-1.740;2022-08-23T05:01:32;99587.00;;;14.61;100.00
51452;BME280;37521;52.020;-1.740;2022-08-23T05:04:01;99586.78;;;14.64;100.00
51452;BME280;37521;52.020;-1.740;2022-08-23T05:06:32;99579.75;;;14.63;100.00
51452;BME280;37521;52.020;-1.740;2022-08-23T05:09:00;99578.06;;;14.62;100.00
51452;BME280;37521;52.020;-1.740;2022-08-23T05:11:30;99585.06;;;14.63;100.00
51452;BME280;37521;52.020;-1.740;2022-08-23T05:13:58;99583.38;;;14.62;100.00
51452;BME280;37521;52.020;-1.740;2022-08-23T05:16:28;99578.81;;;14.64;100.00
51452;BME280;37521;52.020;-1.740;2022-08-23T05:19:01;99569.13;;;14.63;100.00
51452;BME280;37521;52.020;-1.740;2022-08-23T05:21:37;99576.16;;;14.64;100.00
51452;BME280;37521;52.020;-1.740;2022-08-23T05:24:05;99582.34;;;14.65;100.00
51452;BME280;37521;52.020;-1.740;2022-08-23T05:26:40;99588.50;;;14.65;100.00
51452;BME280;37521;52.020;-1.740;2022-08-23T05:29:09;99594.31;;;14.70;100.00
51452;BME280;37521;52.020;-1.740;2022-08-23T05:31:43;99588.16;;;14.70;100.00
51452;BME280;37521;52.020;-1.740;2022-08-23T05:34:15;99593.59;;;14.68;100.00
51452;BME280;37521;52.020;-1.740;2022-08-23T05:36:54;99601.69;;;14.67;100.00
51452;BME280;37521;52.020;-1.740;2022-08-23T05:39:29;99611.34;;;14.68;100.00
51452;BME280;37521;52.020;-1.740;2022-08-23T05:42:05;99615.06;;;14.65;100.00
51452;BME280;37521;52.020;-1.740;2022-08-23T05:44:34;99608.91;;;14.65;100.00
51452;BME280;37521;52.020;-1.740;2022-08-23T05:47:06;99618.59;;;14.66;100.00
51452;BME280;37521;52.020;-1.740;2022-08-23T05:49:47;99620.16;;;14.68;100.00
51452;BME280;37521;52.020;-1.740;2022-08-23T05:52:17;99617.81;;;14.77;100.00
51452;BME280;37521;52.020;-1.740;2022-08-23T05:54:45;99616.53;;;14.82;100.00
51452;BME280;37521;52.020;-1.740;2022-08-23T05:57:34;99614.53;;;14.86;100.00
51452;BME280;37521;52.020;-1.740;2022-08-23T06:00:04;99617.69;;;14.91;100.00
51452;BME280;37521;52.020;-1.740;2022-08-23T06:02:44;99606.63;;;14.97;100.00
51452;BME280;37521;52.020;-1.740;2022-08-23T06:05:13;99617.78;;;15.02;100.00
51452;BME280;37521;52.020;-1.740;2022-08-23T06:07:45;99615.66;;;15.07;100.00
51452;BME280;37521;52.020;-1.740;2022-08-23T06:10:18;99616.09;;;15.14;100.00
51452;BME280;37521;52.020;-1.740;2022-08-23T06:12:55;99623.63;;;15.20;100.00
51452;BME280;37521;52.020;-1.740;2022-08-23T06:15:23;99621.56;;;15.23;100.00
51452;BME280;37521;52.020;-1.740;2022-08-23T06:17:51;99624.16;;;15.25;100.00
51452;BME280;37521;52.020;-1.740;2022-08-23T06:20:20;99619.03;;;15.22;100.00
51452;BME280;37521;52.020;-1.740;2022-08-23T06:22:58;99626.91;;;15.23;100.00
51452;BME280;37521;52.020;-1.740;2022-08-23T06:25:27;99621.81;;;15.20;100.00
51452;BME280;37521;52.020;-1.740;2022-08-23T06:28:07;99622.00;;;15.17;100.00
51452;BME280;37521;52.020;-1.740;2022-08-23T06:30:37;99630.00;;;15.17;100.00
51452;BME280;37521;52.020;-1.740;2022-08-23T06:33:24;99618.44;;;15.18;100.00
51452;BME280;37521;52.020;-1.740;2022-08-23T06:36:15;99614.81;;;15.19;100.00
51452;BME280;37521;52.020;-1.740;2022-08-23T06:39:04;99609.25;;;15.22;100.00
51452;BME280;37521;52.020;-1.740;2022-08-23T06:41:45;99625.84;;;15.26;100.00
51452;BME280;37521;52.020;-1.740;2022-08-23T06:44:34;99617.31;;;15.34;100.00
51452;BME280;37521;52.020;-1.740;2022-08-23T06:47:21;99619.53;;;15.40;100.00
51452;BME280;37521;52.020;-1.740;2022-08-23T06:49:50;99606.97;;;15.42;100.00
51452;BME280;37521;52.020;-1.740;2022-08-23T06:52:46;99608.66;;;15.43;100.00
51452;BME280;37521;52.020;-1.740;2022-08-23T06:55:24;99617.06;;;15.37;100.00
51452;BME280;37521;52.020;-1.740;2022-08-23T06:58:03;99625.63;;;15.29;100.00
51452;BME280;37521;52.020;-1.740;2022-08-23T07:00:40;99625.44;;;15.19;100.00
51452;BME280;37521;52.020;-1.740;2022-08-23T07:03:22;99622.47;;;15.11;100.00
51452;BME280;37521;52.020;-1.740;2022-08-23T07:06:11;99630.66;;;15.08;100.00
51452;BME280;37521;52.020;-1.740;2022-08-23T07:08:43;99634.81;;;15.12;100.00
51452;BME280;37521;52.020;-1.740;2022-08-23T07:11:14;99635.84;;;15.22;100.00
51452;BME280;37521;52.020;-1.740;2022-08-23T07:13:42;99640.69;;;15.41;100.00
51452;BME280;37521;52.020;-1.740;2022-08-23T07:16:11;99639.03;;;15.64;100.00
51452;BME280;37521;52.020;-1.740;2022-08-23T07:18:39;99635.69;;;15.86;100.00
51452;BME280;37521;52.020;-1.740;2022-08-23T07:21:08;99633.69;;;16.01;100.00
51452;BME280;37521;52.020;-1.740;2022-08-23T07:23:38;99636.28;;;16.14;100.00
51452;BME280;37521;52.020;-1.740;2022-08-23T07:26:14;99628.22;;;16.26;100.00
51452;BME280;37521;52.020;-1.740;2022-08-23T07:28:43;99639.84;;;16.37;100.00
51452;BME280;37521;52.020;-1.740;2022-08-23T07:31:15;99634.06;;;16.43;100.00
51452;BME280;37521;52.020;-1.740;2022-08-23T07:33:44;99640.16;;;16.56;100.00
51452;BME280;37521;52.020;-1.740;2022-08-23T07:36:19;99641.38;;;16.63;100.00
51452;BME280;37521;52.020;-1.740;2022-08-23T07:38:50;99655.44;;;16.65;100.00
51452;BME280;37521;52.020;-1.740;2022-08-23T07:41:21;99655.09;;;16.70;100.00
51452;BME280;37521;52.020;-1.740;2022-08-23T07:43:50;99657.66;;;16.71;100.00
51452;BME280;37521;52.020;-1.740;2022-08-23T07:46:19;99660.31;;;16.71;100.00
51452;BME280;37521;52.020;-1.740;2022-08-23T07:48:49;99669.72;;;16.64;100.00
51452;BME280;37521;52.020;-1.740;2022-08-23T07:51:25;99660.66;;;16.67;100.00
51452;BME280;37521;52.020;-1.740;2022-08-23T07:53:53;99655.75;;;16.73;100.00
51452;BME280;37521;52.020;-1.740;2022-08-23T07:56:23;99654.22;;;16.69;100.00
51452;BME280;37521;52.020;-1.740;2022-08-23T07:58:59;99650.34;;;16.62;100.00
51452;BME280;37521;52.020;-1.740;2022-08-23T08:01:40;99649.84;;;16.57;100.00
51452;BME280;37521;52.020;-1.740;2022-08-23T08:04:10;99652.63;;;16.55;100.00
51452;BME280;37521;52.020;-1.740;2022-08-23T08:06:44;99651.81;;;16.66;100.00
51452;BME280;37521;52.020;-1.740;2022-08-23T08:09:35;99655.25;;;16.79;100.00
51452;BME280;37521;52.020;-1.740;2022-08-23T08:12:05;99654.06;;;16.95;100.00
51452;BME280;37521;52.020;-1.740;2022-08-23T08:14:36;99658.31;;;17.20;100.00
51452;BME280;37521;52.020;-1.740;2022-08-23T08:17:05;99655.75;;;17.40;100.00
51452;BME280;37521;52.020;-1.740;2022-08-23T08:19:53;99660.34;;;17.50;100.00
51452;BME280;37521;52.020;-1.740;2022-08-23T08:22:44;99664.13;;;17.47;100.00
51452;BME280;37521;52.020;-1.740;2022-08-23T08:25:41;99650.91;;;17.46;100.00
51452;BME280;37521;52.020;-1.740;2022-08-23T08:28:13;99649.44;;;17.53;100.00
51452;BME280;37521;52.020;-1.740;2022-08-23T08:30:42;99651.84;;;17.56;100.00
51452;BME280;37521;52.020;-1.740;2022-08-23T08:33:12;99642.63;;;17.60;100.00
51452;BME280;37521;52.020;-1.740;2022-08-23T08:35:41;99645.53;;;17.79;100.00
51452;BME280;37521;52.020;-1.740;2022-08-23T08:38:09;99655.41;;;18.00;100.00
51452;BME280;37521;52.020;-1.740;2022-08-23T08:40:39;99654.63;;;18.09;100.00
51452;BME280;37521;52.020;-1.740;2022-08-23T08:43:22;99666.19;;;18.09;100.00
51452;BME280;37521;52.020;-1.740;2022-08-23T08:46:00;99670.34;;;18.02;100.00
51452;BME280;37521;52.020;-1.740;2022-08-23T08:48:38;99668.63;;;18.01;100.00
51452;BME280;37521;52.020;-1.740;2022-08-23T08:51:15;99670.06;;;18.05;100.00
51452;BME280;37521;52.020;-1.740;2022-08-23T08:53:47;99666.78;;;18.13;100.00
51452;BME280;37521;52.020;-1.740;2022-08-23T08:56:37;99677.53;;;18.22;100.00
51452;BME280;37521;52.020;-1.740;2022-08-23T08:59:19;99673.84;;;18.35;100.00
51452;BME280;37521;52.020;-1.740;2022-08-23T09:01:48;99676.72;;;18.43;100.00
51452;BME280;37521;52.020;-1.740;2022-08-23T09:04:25;99674.38;;;18.49;100.00
51452;BME280;37521;52.020;-1.740;2022-08-23T09:06:57;99675.22;;;18.50;100.00
51452;BME280;37521;52.020;-1.740;2022-08-23T09:09:47;99669.22;;;18.58;100.00
51452;BME280;37521;52.020;-1.740;2022-08-23T09:12:24;99665.28;;;18.73;100.00
51452;BME280;37521;52.020;-1.740;2022-08-23T09:15:12;99662.19;;;18.77;100.00
51452;BME280;37521;52.020;-1.740;2022-08-23T09:17:50;99666.19;;;18.83;100.00
51452;BME280;37521;52.020;-1.740;2022-08-23T09:20:20;99662.00;;;18.90;100.00
51452;BME280;37521;52.020;-1.740;2022-08-23T09:22:54;99661.88;;;18.71;100.00
51452;BME280;37521;52.020;-1.740;2022-08-23T09:25:30;99659.69;;;18.65;100.00
51452;BME280;37521;52.020;-1.740;2022-08-23T09:28:07;99657.38;;;18.71;100.00
51452;BME280;37521;52.020;-1.740;2022-08-23T09:30:48;99657.69;;;18.78;100.00
51452;BME280;37521;52.020;-1.740;2022-08-23T09:33:19;99661.97;;;18.81;100.00
51452;BME280;37521;52.020;-1.740;2022-08-23T09:36:14;99660.50;;;18.76;100.00
51452;BME280;37521;52.020;-1.740;2022-08-23T09:38:51;99657.91;;;18.86;100.00
51452;BME280;37521;52.020;-1.740;2022-08-23T09:41:24;99665.97;;;18.96;100.00
51452;BME280;37521;52.020;-1.740;2022-08-23T09:43:56;99664.59;;;19.01;100.00
51452;BME280;37521;52.020;-1.740;2022-08-23T09:46:31;99669.13;;;19.11;100.00
51452;BME280;37521;52.020;-1.740;2022-08-23T09:49:22;99674.78;;;19.08;100.00
51452;BME280;37521;52.020;-1.740;2022-08-23T09:51:58;99682.34;;;19.02;100.00
51452;BME280;37521;52.020;-1.740;2022-08-23T09:54:29;99682.00;;;18.86;100.00
51452;BME280;37521;52.020;-1.740;2022-08-23T09:57:03;99681.34;;;18.73;100.00
51452;BME280;37521;52.020;-1.740;2022-08-23T09:59:38;99683.19;;;18.61;100.00
51452;BME280;37521;52.020;-1.740;2022-08-23T10:02:22;99681.16;;;18.54;100.00
51452;BME280;37521;52.020;-1.740;2022-08-23T10:04:58;99683.38;;;18.48;100.00
51452;BME280;37521;52.020;-1.740;2022-08-23T10:07:32;99682.59;;;18.58;100.00
51452;BME280;37521;52.020;-1.740;2022-08-23T10:10:22;99685.19;;;18.80;100.00
51452;BME280;37521;52.020;-1.740;2022-08-23T10:12:55;99679.38;;;19.05;100.00
51452;BME280;37521;52.020;-1.740;2022-08-23T10:15:38;99691.72;;;19.18;100.00
51452;BME280;37521;52.020;-1.740;2022-08-23T10:18:18;99690.88;;;19.17;100.00
51452;BME280;37521;52.020;-1.740;2022-08-23T10:20:55;99691.28;;;19.13;100.00
51452;BME280;37521;52.020;-1.740;2022-08-23T10:23:40;99695.06;;;19.10;100.00
51452;BME280;37521;52.020;-1.740;2022-08-23T10:26:19;99698.25;;;19.04;100.00
51452;BME280;37521;52.020;-1.740;2022-08-23T10:28:57;99690.84;;;19.08;100.00
51452;BME280;37521;52.020;-1.740;2022-08-23T10:31:54;99694.53;;;19.16;100.00
51452;BME280;37521;52.020;-1.740;2022-08-23T10:34:41;99686.34;;;19.18;100.00
51452;BME280;37521;52.020;-1.740;2022-08-23T10:37:29;99692.06;;;19.03;100.00
51452;BME280;37521;52.020;-1.740;2022-08-23T10:40:06;99680.59;;;18.92;100.00
51452;BME280;37521;52.020;-1.740;2022-08-23T10:42:42;99676.41;;;18.99;100.00
51452;BME280;37521;52.020;-1.740;2022-08-23T10:45:23;99676.09;;;19.53;100.00
51452;BME280;37521;52.020;-1.740;2022-08-23T10:48:03;99679.06;;;20.00;100.00
51452;BME280;37521;52.020;-1.740;2022-08-23T10:50:42;99671.44;;;20.34;100.00
51452;BME280;37521;52.020;-1.740;2022-08-23T10:53:29;99658.19;;;20.52;100.00
51452;BME280;37521;52.020;-1.740;2022-08-23T10:55:59;99669.16;;;20.39;100.00
51452;BME280;37521;52.020;-1.740;2022-08-23T10:58:41;99677.91;;;20.32;100.00
51452;BME280;37521;52.020;-1.740;2022-08-23T11:01:17;99676.25;;;20.40;100.00
51452;BME280;37521;52.020;-1.740;2022-08-23T11:03:55;99677.19;;;20.39;100.00
51452;BME280;37521;52.020;-1.740;2022-08-23T11:06:46;99671.44;;;20.34;100.00
51452;BME280;37521;52.020;-1.740;2022-08-23T11:09:43;99676.56;;;20.47;100.00
51452;BME280;37521;52.020;-1.740;2022-08-23T11:12:23;99669.75;;;20.62;100.00
51452;BME280;37521;52.020;-1.740;2022-08-23T11:15:03;99672.16;;;20.46;100.00
51452;BME280;37521;52.020;-1.740;2022-08-23T11:17:51;99676.09;;;20.42;100.00
51452;BME280;37521;52.020;-1.740;2022-08-23T11:20:56;99681.06;;;20.47;100.00
51452;BME280;37521;52.020;-1.740;2022-08-23T11:23:51;99670.44;;;20.64;100.00
51452;BME280;37521;52.020;-1.740;2022-08-23T11:29:39;99675.31;;;20.98;100.00
51452;BME280;37521;52.020;-1.740;2022-08-23T11:32:30;99677.06;;;20.80;100.00
51452;BME280;37521;52.020;-1.740;2022-08-23T11:35:07;99678.06;;;20.69;100.00
51452;BME280;37521;52.020;-1.740;2022-08-23T11:37:59;99684.16;;;20.52;100.00
51452;BME280;37521;52.020;-1.740;2022-08-23T11:40:58;99679.94;;;21.06;100.00
51452;BME280;37521;52.020;-1.740;2022-08-23T11:43:34;99678.81;;;21.55;100.00
51452;BME280;37521;52.020;-1.740;2022-08-23T11:46:27;99674.09;;;21.85;100.00
51452;BME280;37521;52.020;-1.740;2022-08-23T11:49:34;99678.81;;;21.55;100.00
51452;BME280;37521;52.020;-1.740;2022-08-23T11:52:18;99679.00;;;21.07;100.00
51452;BME280;37521;52.020;-1.740;2022-08-23T11:55:15;99677.34;;;20.77;100.00
51452;BME280;37521;52.020;-1.740;2022-08-23T12:00:54;99677.69;;;20.54;100.00
51452;BME280;37521;52.020;-1.740;2022-08-23T12:03:27;99672.00;;;20.57;100.00
51452;BME280;37521;52.020;-1.740;2022-08-23T12:06:08;99660.53;;;21.31;100.00
51452;BME280;37521;52.020;-1.740;2022-08-23T12:08:48;99668.41;;;21.42;100.00
51452;BME280;37521;52.020;-1.740;2022-08-23T12:11:18;99661.19;;;20.96;100.00
51452;BME280;37521;52.020;-1.740;2022-08-23T12:20:29;99668.50;;;20.66;100.00
51452;BME280;37521;52.020;-1.740;2022-08-23T12:23:06;99666.53;;;21.06;100.00
51452;BME280;37521;52.020;-1.740;2022-08-23T12:25:38;99658.94;;;21.01;100.00
51452;BME280;37521;52.020;-1.740;2022-08-23T12:28:21;99652.94;;;21.17;100.00
51452;BME280;37521;52.020;-1.740;2022-08-23T12:31:00;99661.09;;;21.25;100.00
51452;BME280;37521;52.020;-1.740;2022-08-23T12:33:42;99662.94;;;21.62;100.00
51452;BME280;37521;52.020;-1.740;2022-08-23T12:36:20;99651.28;;;22.16;100.00
51452;BME280;37521;52.020;-1.740;2022-08-23T12:38:58;99650.97;;;22.81;100.00
51452;BME280;37521;52.020;-1.740;2022-08-23T12:41:30;99650.31;;;23.13;98.49
51452;BME280;37521;52.020;-1.740;2022-08-23T12:44:05;99650.75;;;22.74;98.72
51452;BME280;37521;52.020;-1.740;2022-08-23T12:46:36;99656.56;;;22.26;100.00
51452;BME280;37521;52.020;-1.740;2022-08-23T12:49:08;99664.16;;;21.95;100.00
51452;BME280;37521;52.020;-1.740;2022-08-23T12:51:40;99653.28;;;22.14;100.00
51452;BME280;37521;52.020;-1.740;2022-08-23T12:54:14;99654.41;;;22.47;100.00
51452;BME280;37521;52.020;-1.740;2022-08-23T12:56:45;99651.63;;;22.83;100.00
51452;BME280;37521;52.020;-1.740;2022-08-23T12:59:31;99644.63;;;23.16;97.93
51452;BME280;37521;52.020;-1.740;2022-08-23T13:02:02;99651.94;;;23.32;94.89
51452;BME280;37521;52.020;-1.740;2022-08-23T13:04:34;99659.50;;;22.94;96.52
51452;BME280;37521;52.020;-1.740;2022-08-23T13:07:07;99649.13;;;22.81;97.41
51452;BME280;37521;52.020;-1.740;2022-08-23T13:09:39;99659.00;;;22.99;96.48
51452;BME280;37521;52.020;-1.740;2022-08-23T13:12:20;99654.53;;;23.84;94.32
51452;BME280;37521;52.020;-1.740;2022-08-23T13:14:49;99652.94;;;24.40;87.69
51452;BME280;37521;52.020;-1.740;2022-08-23T13:17:28;99656.13;;;24.84;80.78
51452;BME280;37521;52.020;-1.740;2022-08-23T13:20:17;99644.22;;;25.26;77.75
51452;BME280;37521;52.020;-1.740;2022-08-23T13:22:57;99654.19;;;25.65;78.73
51452;BME280;37521;52.020;-1.740;2022-08-23T13:25:28;99652.53;;;25.16;73.85
51452;BME280;37521;52.020;-1.740;2022-08-23T13:28:01;99652.41;;;24.28;75.19
51452;BME280;37521;52.020;-1.740;2022-08-23T13:30:31;99651.66;;;23.93;79.05
51452;BME280;37521;52.020;-1.740;2022-08-23T13:33:19;99648.28;;;23.83;81.53
51452;BME280;37521;52.020;-1.740;2022-08-23T13:35:50;99644.88;;;23.39;82.59